Terminal Aerodrome Forecast
Issued by NWS

Home | Current Version | Previous Version | Text Only | Print | Product List | Glossary On
Versions: 1 2 3 4 5 6 7 8 9 10 11 12 13 14 15 16
329
FTUS41 KBTV 240538
TAFMPV
TAF
KMPV 240538Z 2406/2506 17011KT P6SM OVC050
     FM240900 17012G21KT P6SM VCSH OVC025
     FM241500 16016G26KT P6SM VCSH OVC020
     FM242200 17013G21KT 3SM +RA BR OVC015
     FM250200 19009KT 5SM -SHRA BR OVC008=

USA.gov is the U.S. government's official web portal to all federal, state and local government web resources and services.